sensor_id;sensor_type;location;lat;lon;timestamp;pressure;altitude;pressure_sealevel;temperature;humidity
85758;BME280;76202;52.626;4.746;2024-03-02T00:02:11;99576.63;;;18.37;59.73
85758;BME280;76202;52.626;4.746;2024-03-02T00:04:36;99587.72;;;18.35;59.92
85758;BME280;76202;52.626;4.746;2024-03-02T00:07:02;99600.69;;;18.33;59.73
85758;BME280;76202;52.626;4.746;2024-03-02T00:09:29;99601.78;;;18.32;59.68
85758;BME280;76202;52.626;4.746;2024-03-02T00:11:54;99612.88;;;18.31;59.71
85758;BME280;76202;52.626;4.746;2024-03-02T00:14:20;99613.16;;;18.29;59.99
85758;BME280;76202;52.626;4.746;2024-03-02T00:16:45;99615.88;;;18.29;60.02
85758;BME280;76202;52.626;4.746;2024-03-02T00:19:11;99611.81;;;18.27;60.21
85758;BME280;76202;52.626;4.746;2024-03-02T00:21:37;99610.44;;;18.24;59.79
85758;BME280;76202;52.626;4.746;2024-03-02T00:24:17;99611.75;;;18.22;60.03
85758;BME280;76202;52.626;4.746;2024-03-02T00:26:45;99611.75;;;18.22;59.75
85758;BME280;76202;52.626;4.746;2024-03-02T00:29:13;99631.00;;;18.20;60.11
85758;BME280;76202;52.626;4.746;2024-03-02T00:31:41;99637.47;;;18.19;60.10
85758;BME280;76202;52.626;4.746;2024-03-02T00:34:07;99630.44;;;18.18;59.70
85758;BME280;76202;52.626;4.746;2024-03-02T00:36:32;99636.38;;;18.15;59.41
85758;BME280;76202;52.626;4.746;2024-03-02T00:38:58;99639.09;;;18.15;60.25
85758;BME280;76202;52.626;4.746;2024-03-02T00:41:25;99627.69;;;18.13;59.73
85758;BME280;76202;52.626;4.746;2024-03-02T00:44:00;99636.91;;;18.12;59.90
85758;BME280;76202;52.626;4.746;2024-03-02T00:46:36;99656.94;;;18.11;59.79
85758;BME280;76202;52.626;4.746;2024-03-02T00:49:03;99671.81;;;18.09;59.86
85758;BME280;76202;52.626;4.746;2024-03-02T00:51:30;99671.25;;;18.07;60.19
85758;BME280;76202;52.626;4.746;2024-03-02T00:53:59;99664.22;;;18.06;59.93
85758;BME280;76202;52.626;4.746;2024-03-02T00:56:25;99666.38;;;18.04;59.98
85758;BME280;76202;52.626;4.746;2024-03-02T00:58:51;99656.06;;;18.01;59.93
85758;BME280;76202;52.626;4.746;2024-03-02T01:01:17;99665.25;;;18.00;60.47
85758;BME280;76202;52.626;4.746;2024-03-02T01:03:45;99666.59;;;17.97;59.65
85758;BME280;76202;52.626;4.746;2024-03-02T01:06:10;99676.59;;;17.97;59.85
85758;BME280;76202;52.626;4.746;2024-03-02T01:08:36;99680.38;;;17.96;59.94
85758;BME280;76202;52.626;4.746;2024-03-02T01:11:02;99660.91;;;17.94;59.86
85758;BME280;76202;52.626;4.746;2024-03-02T01:13:28;99667.66;;;17.91;60.20
85758;BME280;76202;52.626;4.746;2024-03-02T01:15:53;99667.06;;;17.89;59.88
85758;BME280;76202;52.626;4.746;2024-03-02T01:18:19;99679.53;;;17.90;59.70
85758;BME280;76202;52.626;4.746;2024-03-02T01:20:44;99684.41;;;17.88;60.17
85758;BME280;76202;52.626;4.746;2024-03-02T01:23:11;99680.06;;;17.87;60.01
85758;BME280;76202;52.626;4.746;2024-03-02T01:25:36;99679.50;;;17.85;60.23
85758;BME280;76202;52.626;4.746;2024-03-02T01:28:02;99672.47;;;17.84;59.84
85758;BME280;76202;52.626;4.746;2024-03-02T01:30:27;99673.56;;;17.83;60.00
85758;BME280;76202;52.626;4.746;2024-03-02T01:32:52;99671.91;;;17.82;59.96
85758;BME280;76202;52.626;4.746;2024-03-02T01:35:18;99652.44;;;17.80;59.92
85758;BME280;76202;52.626;4.746;2024-03-02T01:37:43;99657.56;;;17.76;59.91
85758;BME280;76202;52.626;4.746;2024-03-02T01:40:09;99667.56;;;17.76;60.14
85758;BME280;76202;52.626;4.746;2024-03-02T01:42:38;99663.22;;;17.75;59.92
85758;BME280;76202;52.626;4.746;2024-03-02T01:45:08;99661.59;;;17.74;60.14
85758;BME280;76202;52.626;4.746;2024-03-02T01:47:34;99665.63;;;17.71;59.94
85758;BME280;76202;52.626;4.746;2024-03-02T01:50:00;99672.94;;;17.71;60.00
85758;BME280;76202;52.626;4.746;2024-03-02T01:52:26;99674.00;;;17.70;60.06
85758;BME280;76202;52.626;4.746;2024-03-02T01:54:52;99694.28;;;17.67;59.98
85758;BME280;76202;52.626;4.746;2024-03-02T01:57:17;99696.97;;;17.67;60.03
85758;BME280;76202;52.626;4.746;2024-03-02T01:59:43;99696.44;;;17.65;60.20
85758;BME280;76202;52.626;4.746;2024-03-02T02:02:08;99696.44;;;17.65;59.99
85758;BME280;76202;52.626;4.746;2024-03-02T02:04:34;99709.38;;;17.63;60.35
85758;BME280;76202;52.626;4.746;2024-03-02T02:06:59;99715.88;;;17.62;59.96
85758;BME280;76202;52.626;4.746;2024-03-02T02:09:25;99711.78;;;17.60;60.13
85758;BME280;76202;52.626;4.746;2024-03-02T02:11:51;99704.19;;;17.57;60.51
85758;BME280;76202;52.626;4.746;2024-03-02T02:14:16;99710.41;;;17.57;60.00
85758;BME280;76202;52.626;4.746;2024-03-02T02:16:42;99705.28;;;17.56;59.93
85758;BME280;76202;52.626;4.746;2024-03-02T02:19:07;99707.38;;;17.54;60.29
85758;BME280;76202;52.626;4.746;2024-03-02T02:21:33;99701.19;;;17.53;59.93
85758;BME280;76202;52.626;4.746;2024-03-02T02:23:58;99699.00;;;17.50;60.12
85758;BME280;76202;52.626;4.746;2024-03-02T02:26:24;99722.22;;;17.51;60.17
85758;BME280;76202;52.626;4.746;2024-03-02T02:28:50;99720.63;;;17.50;60.05
85758;BME280;76202;52.626;4.746;2024-03-02T02:31:15;99717.34;;;17.48;60.06
85758;BME280;76202;52.626;4.746;2024-03-02T02:33:42;99717.34;;;17.48;59.86
85758;BME280;76202;52.626;4.746;2024-03-02T02:36:07;99702.44;;;17.46;60.06
85758;BME280;76202;52.626;4.746;2024-03-02T02:38:37;99707.31;;;17.44;60.19
85758;BME280;76202;52.626;4.746;2024-03-02T02:41:03;99714.59;;;17.43;60.49
85758;BME280;76202;52.626;4.746;2024-03-02T02:43:28;99713.78;;;17.43;60.15
85758;BME280;76202;52.626;4.746;2024-03-02T02:45:54;99714.28;;;17.40;60.32
85758;BME280;76202;52.626;4.746;2024-03-02T02:48:19;99713.47;;;17.39;60.19
85758;BME280;76202;52.626;4.746;2024-03-02T02:50:44;99714.56;;;17.38;60.11
85758;BME280;76202;52.626;4.746;2024-03-02T02:53:10;99726.44;;;17.37;60.05
85758;BME280;76202;52.626;4.746;2024-03-02T02:55:35;99728.31;;;17.37;59.92
85758;BME280;76202;52.626;4.746;2024-03-02T02:58:08;99715.31;;;17.34;60.05
85758;BME280;76202;52.626;4.746;2024-03-02T03:00:33;99724.53;;;17.33;60.42
85758;BME280;76202;52.626;4.746;2024-03-02T03:03:02;99719.38;;;17.31;60.19
85758;BME280;76202;52.626;4.746;2024-03-02T03:05:27;99720.41;;;17.30;60.09
85758;BME280;76202;52.626;4.746;2024-03-02T03:07:53;99726.91;;;17.29;60.49
85758;BME280;76202;52.626;4.746;2024-03-02T03:10:18;99728.25;;;17.26;60.09
85758;BME280;76202;52.626;4.746;2024-03-02T03:12:46;99728.25;;;17.26;60.06
85758;BME280;76202;52.626;4.746;2024-03-02T03:15:11;99733.66;;;17.26;59.79
85758;BME280;76202;52.626;4.746;2024-03-02T03:17:37;99734.16;;;17.23;60.23
85758;BME280;76202;52.626;4.746;2024-03-02T03:20:03;99732.53;;;17.22;60.11
85758;BME280;76202;52.626;4.746;2024-03-02T03:22:29;99732.81;;;17.21;59.93
85758;BME280;76202;52.626;4.746;2024-03-02T03:24:56;99738.19;;;17.21;60.31
85758;BME280;76202;52.626;4.746;2024-03-02T03:27:21;99738.44;;;17.19;60.08
85758;BME280;76202;52.626;4.746;2024-03-02T03:29:46;99733.03;;;17.19;60.38
85758;BME280;76202;52.626;4.746;2024-03-02T03:32:12;99734.09;;;17.18;60.17
85758;BME280;76202;52.626;4.746;2024-03-02T03:34:37;99737.06;;;17.17;60.01
85758;BME280;76202;52.626;4.746;2024-03-02T03:37:03;99741.41;;;17.18;59.92
85758;BME280;76202;52.626;4.746;2024-03-02T03:39:29;99742.72;;;17.15;59.45
85758;BME280;76202;52.626;4.746;2024-03-02T03:41:54;99746.75;;;17.13;59.98
85758;BME280;76202;52.626;4.746;2024-03-02T03:44:20;99751.91;;;17.14;59.84
85758;BME280;76202;52.626;4.746;2024-03-02T03:46:46;99744.31;;;17.11;59.78
85758;BME280;76202;52.626;4.746;2024-03-02T03:49:11;99752.41;;;17.11;60.42
85758;BME280;76202;52.626;4.746;2024-03-02T03:51:36;99741.84;;;17.10;60.04
85758;BME280;76202;52.626;4.746;2024-03-02T03:54:02;99752.66;;;17.10;60.09
85758;BME280;76202;52.626;4.746;2024-03-02T03:56:27;99755.63;;;17.08;60.43
85758;BME280;76202;52.626;4.746;2024-03-02T03:58:53;99757.50;;;17.08;60.41
85758;BME280;76202;52.626;4.746;2024-03-02T04:01:18;99763.97;;;17.07;60.51
85758;BME280;76202;52.626;4.746;2024-03-02T04:03:43;99759.66;;;17.06;59.99
85758;BME280;76202;52.626;4.746;2024-03-02T04:06:09;99760.72;;;17.05;60.12
85758;BME280;76202;52.626;4.746;2024-03-02T04:08:34;99765.31;;;17.04;60.24
85758;BME280;76202;52.626;4.746;2024-03-02T04:10:59;99766.63;;;17.02;60.15
85758;BME280;76202;52.626;4.746;2024-03-02T04:13:25;99765.81;;;17.01;59.68
85758;BME280;76202;52.626;4.746;2024-03-02T04:15:50;99766.09;;;17.00;60.10
85758;BME280;76202;52.626;4.746;2024-03-02T04:18:16;99767.97;;;16.99;60.28
85758;BME280;76202;52.626;4.746;2024-03-02T04:20:41;99768.19;;;16.98;60.20
85758;BME280;76202;52.626;4.746;2024-03-02T04:23:07;99772.00;;;16.97;60.15
85758;BME280;76202;52.626;4.746;2024-03-02T04:25:32;99779.50;;;16.95;60.22
85758;BME280;76202;52.626;4.746;2024-03-02T04:27:58;99773.31;;;16.94;59.74
85758;BME280;76202;52.626;4.746;2024-03-02T04:30:23;99777.06;;;16.93;60.36
85758;BME280;76202;52.626;4.746;2024-03-02T04:32:49;99778.94;;;16.93;60.16
85758;BME280;76202;52.626;4.746;2024-03-02T04:35:14;99779.22;;;16.91;60.71
85758;BME280;76202;52.626;4.746;2024-03-02T04:37:39;99777.84;;;16.89;60.00
85758;BME280;76202;52.626;4.746;2024-03-02T04:40:05;99780.56;;;16.89;60.20
85758;BME280;76202;52.626;4.746;2024-03-02T04:42:34;99787.00;;;16.88;59.90
85758;BME280;76202;52.626;4.746;2024-03-02T04:45:00;99784.53;;;16.86;59.83
85758;BME280;76202;52.626;4.746;2024-03-02T04:47:25;99780.22;;;16.85;60.29
85758;BME280;76202;52.626;4.746;2024-03-02T04:49:51;99784.00;;;16.84;60.05
85758;BME280;76202;52.626;4.746;2024-03-02T04:52:16;99785.88;;;16.84;60.01
85758;BME280;76202;52.626;4.746;2024-03-02T04:54:42;99785.31;;;16.82;59.89
85758;BME280;76202;52.626;4.746;2024-03-02T04:57:26;99785.56;;;16.80;60.01
85758;BME280;76202;52.626;4.746;2024-03-02T04:59:52;99787.47;;;16.80;60.42
85758;BME280;76202;52.626;4.746;2024-03-02T05:02:17;99791.22;;;16.79;59.91
85758;BME280;76202;52.626;4.746;2024-03-02T05:04:42;99796.06;;;16.77;60.07
85758;BME280;76202;52.626;4.746;2024-03-02T05:07:08;99793.59;;;16.75;60.70
85758;BME280;76202;52.626;4.746;2024-03-02T05:09:33;99806.03;;;16.76;60.51
85758;BME280;76202;52.626;4.746;2024-03-02T05:11:58;99801.97;;;16.73;60.91
85758;BME280;76202;52.626;4.746;2024-03-02T05:14:42;99800.56;;;16.71;59.90
85758;BME280;76202;52.626;4.746;2024-03-02T05:17:08;99805.16;;;16.70;60.68
85758;BME280;76202;52.626;4.746;2024-03-02T05:19:33;99807.03;;;16.70;60.34
85758;BME280;76202;52.626;4.746;2024-03-02T05:21:58;99811.63;;;16.69;59.93
85758;BME280;76202;52.626;4.746;2024-03-02T05:24:24;99814.28;;;16.64;60.12
85758;BME280;76202;52.626;4.746;2024-03-02T05:26:52;99817.78;;;16.65;59.99
85758;BME280;76202;52.626;4.746;2024-03-02T05:29:17;99813.69;;;16.62;60.63
85758;BME280;76202;52.626;4.746;2024-03-02T05:31:43;99807.50;;;16.62;59.90
85758;BME280;76202;52.626;4.746;2024-03-02T05:34:08;99811.25;;;16.61;60.25
85758;BME280;76202;52.626;4.746;2024-03-02T05:36:33;99809.88;;;16.58;60.42
85758;BME280;76202;52.626;4.746;2024-03-02T05:38:59;99822.28;;;16.59;60.52
85758;BME280;76202;52.626;4.746;2024-03-02T05:41:24;99822.53;;;16.58;59.95
85758;BME280;76202;52.626;4.746;2024-03-02T05:43:50;99826.31;;;16.57;59.82
85758;BME280;76202;52.626;4.746;2024-03-02T05:46:15;99828.44;;;16.55;60.07
85758;BME280;76202;52.626;4.746;2024-03-02T05:48:41;99833.00;;;16.54;60.39
85758;BME280;76202;52.626;4.746;2024-03-02T05:51:06;99827.84;;;16.53;60.77
85758;BME280;76202;52.626;4.746;2024-03-02T05:53:32;99831.59;;;16.52;60.58
85758;BME280;76202;52.626;4.746;2024-03-02T05:55:57;99839.94;;;16.50;59.36
85758;BME280;76202;52.626;4.746;2024-03-02T05:58:22;99836.44;;;16.50;60.03
85758;BME280;76202;52.626;4.746;2024-03-02T06:00:57;99844.22;;;16.46;60.56
85758;BME280;76202;52.626;4.746;2024-03-02T06:03:23;99843.16;;;16.47;60.77
85758;BME280;76202;52.626;4.746;2024-03-02T06:05:48;99846.41;;;16.49;60.03
85758;BME280;76202;52.626;4.746;2024-03-02T06:08:14;99850.91;;;16.60;59.89
85758;BME280;76202;52.626;4.746;2024-03-02T06:10:40;99854.88;;;16.74;59.48
85758;BME280;76202;52.626;4.746;2024-03-02T06:13:05;99850.22;;;16.92;58.64
85758;BME280;76202;52.626;4.746;2024-03-02T06:15:31;99858.63;;;17.12;58.31
85758;BME280;76202;52.626;4.746;2024-03-02T06:17:56;99853.97;;;17.34;58.06
85758;BME280;76202;52.626;4.746;2024-03-02T06:20:21;99845.59;;;17.57;57.69
85758;BME280;76202;52.626;4.746;2024-03-02T06:22:47;99854.47;;;17.79;57.53
85758;BME280;76202;52.626;4.746;2024-03-02T06:25:12;99855.78;;;18.04;56.56
85758;BME280;76202;52.626;4.746;2024-03-02T06:27:38;99855.34;;;18.22;56.42
85758;BME280;76202;52.626;4.746;2024-03-02T06:30:04;99858.50;;;18.46;55.40
85758;BME280;76202;52.626;4.746;2024-03-02T06:32:30;99865.97;;;18.65;55.25
85758;BME280;76202;52.626;4.746;2024-03-02T06:34:55;99856.59;;;18.88;55.17
85758;BME280;76202;52.626;4.746;2024-03-02T06:37:20;99863.50;;;19.26;54.35
85758;BME280;76202;52.626;4.746;2024-03-02T06:39:46;99864.41;;;19.46;54.28
85758;BME280;76202;52.626;4.746;2024-03-02T06:42:11;99868.28;;;20.41;51.72
85758;BME280;76202;52.626;4.746;2024-03-02T06:44:36;99878.75;;;20.98;50.45
85758;BME280;76202;52.626;4.746;2024-03-02T06:47:02;99877.03;;;21.28;49.54
85758;BME280;76202;52.626;4.746;2024-03-02T06:49:27;99879.88;;;21.56;49.50
85758;BME280;76202;52.626;4.746;2024-03-02T06:51:52;99875.97;;;21.67;48.74
85758;BME280;76202;52.626;4.746;2024-03-02T06:54:18;99885.09;;;21.92;48.23
85758;BME280;76202;52.626;4.746;2024-03-02T06:56:43;99886.38;;;22.04;47.98
85758;BME280;76202;52.626;4.746;2024-03-02T06:59:09;99887.41;;;22.08;48.92
85758;BME280;76202;52.626;4.746;2024-03-02T07:01:34;99890.63;;;22.15;48.40
85758;BME280;76202;52.626;4.746;2024-03-02T07:03:59;99886.53;;;22.18;48.21
85758;BME280;76202;52.626;4.746;2024-03-02T07:06:25;99883.44;;;21.96;49.57
85758;BME280;76202;52.626;4.746;2024-03-02T07:08:50;99888.38;;;21.89;50.01
85758;BME280;76202;52.626;4.746;2024-03-02T07:11:16;99887.81;;;21.92;49.38
85758;BME280;76202;52.626;4.746;2024-03-02T07:13:41;99881.75;;;22.00;49.29
85758;BME280;76202;52.626;4.746;2024-03-02T07:16:06;99888.91;;;21.96;49.97
85758;BME280;76202;52.626;4.746;2024-03-02T07:18:53;99891.31;;;22.02;49.66
85758;BME280;76202;52.626;4.746;2024-03-02T07:21:20;99883.56;;;21.76;50.81
85758;BME280;76202;52.626;4.746;2024-03-02T07:23:47;99889.94;;;21.56;51.27
85758;BME280;76202;52.626;4.746;2024-03-02T07:26:13;99893.50;;;21.46;51.58
85758;BME280;76202;52.626;4.746;2024-03-02T07:28:40;99896.00;;;21.43;51.64
85758;BME280;76202;52.626;4.746;2024-03-02T07:31:06;99899.53;;;21.38;52.53
85758;BME280;76202;52.626;4.746;2024-03-02T07:33:31;99901.00;;;21.21;52.62
85758;BME280;76202;52.626;4.746;2024-03-02T07:35:57;99899.91;;;21.22;53.08
85758;BME280;76202;52.626;4.746;2024-03-02T07:38:25;99906.44;;;21.26;52.90
85758;BME280;76202;52.626;4.746;2024-03-02T07:40:50;99906.69;;;21.24;52.88
85758;BME280;76202;52.626;4.746;2024-03-02T07:43:19;99918.41;;;21.20;53.19
85758;BME280;76202;52.626;4.746;2024-03-02T07:45:48;99915.94;;;21.28;52.83
85758;BME280;76202;52.626;4.746;2024-03-02T07:48:14;99911.38;;;21.13;53.69
85758;BME280;76202;52.626;4.746;2024-03-02T07:50:40;99920.59;;;21.12;53.13
85758;BME280;76202;52.626;4.746;2024-03-02T07:53:06;99913.53;;;21.06;53.13
85758;BME280;76202;52.626;4.746;2024-03-02T07:55:33;99918.44;;;20.99;53.79
85758;BME280;76202;52.626;4.746;2024-03-02T07:57:59;99926.88;;;20.98;53.72
85758;BME280;76202;52.626;4.746;2024-03-02T08:00:25;99921.16;;;20.94;53.94
85758;BME280;76202;52.626;4.746;2024-03-02T08:02:51;99926.09;;;20.82;54.59
85758;BME280;76202;52.626;4.746;2024-03-02T08:05:17;99932.66;;;20.71;54.65
85758;BME280;76202;52.626;4.746;2024-03-02T08:07:45;99939.19;;;20.60;55.19
85758;BME280;76202;52.626;4.746;2024-03-02T08:10:11;99927.47;;;20.65;54.86
85758;BME280;76202;52.626;4.746;2024-03-02T08:12:36;99942.69;;;20.71;54.36
85758;BME280;76202;52.626;4.746;2024-03-02T08:15:02;99941.84;;;20.90;53.79
85758;BME280;76202;52.626;4.746;2024-03-02T08:17:27;99943.75;;;20.95;53.91
85758;BME280;76202;52.626;4.746;2024-03-02T08:19:53;99945.34;;;21.06;53.54
85758;BME280;76202;52.626;4.746;2024-03-02T08:22:19;99938.28;;;21.10;53.94
85758;BME280;76202;52.626;4.746;2024-03-02T08:24:45;99932.28;;;21.03;53.66
85758;BME280;76202;52.626;4.746;2024-03-02T08:27:10;99939.66;;;20.97;54.28
85758;BME280;76202;52.626;4.746;2024-03-02T08:29:36;99940.47;;;20.88;54.53
85758;BME280;76202;52.626;4.746;2024-03-02T08:32:01;99936.72;;;20.74;54.59
85758;BME280;76202;52.626;4.746;2024-03-02T08:34:26;99935.63;;;20.70;55.08
85758;BME280;76202;52.626;4.746;2024-03-02T08:36:52;99923.97;;;20.69;55.17
85758;BME280;76202;52.626;4.746;2024-03-02T08:39:17;99930.19;;;20.65;55.42
85758;BME280;76202;52.626;4.746;2024-03-02T08:41:45;99935.66;;;20.59;55.40
85758;BME280;76202;52.626;4.746;2024-03-02T08:44:13;99924.53;;;20.46;55.50
85758;BME280;76202;52.626;4.746;2024-03-02T08:46:39;99930.50;;;20.43;55.88
85758;BME280;76202;52.626;4.746;2024-03-02T08:49:04;99935.41;;;20.36;56.15
85758;BME280;76202;52.626;4.746;2024-03-02T08:51:30;99932.94;;;20.29;56.45
85758;BME280;76202;52.626;4.746;2024-03-02T08:53:56;99927.50;;;20.29;56.94
85758;BME280;76202;52.626;4.746;2024-03-02T08:56:22;99928.31;;;20.25;56.31
85758;BME280;76202;52.626;4.746;2024-03-02T08:58:49;99932.09;;;20.19;56.50
85758;BME280;76202;52.626;4.746;2024-03-02T09:01:14;99929.13;;;20.10;56.69
85758;BME280;76202;52.626;4.746;2024-03-02T09:03:39;99932.91;;;20.09;57.07
85758;BME280;76202;52.626;4.746;2024-03-02T09:06:05;99940.50;;;20.07;57.21
85758;BME280;76202;52.626;4.746;2024-03-02T09:08:30;99938.59;;;19.97;57.32
85758;BME280;76202;52.626;4.746;2024-03-02T09:10:56;99948.34;;;19.83;57.44
85758;BME280;76202;52.626;4.746;2024-03-02T09:13:21;99927.47;;;19.84;57.60
85758;BME280;76202;52.626;4.746;2024-03-02T09:15:47;99938.03;;;19.85;56.88
85758;BME280;76202;52.626;4.746;2024-03-02T09:18:13;99948.88;;;19.85;57.25
85758;BME280;76202;52.626;4.746;2024-03-02T09:20:39;99949.16;;;19.84;57.76
85758;BME280;76202;52.626;4.746;2024-03-02T09:23:04;99947.78;;;19.81;57.33
85758;BME280;76202;52.626;4.746;2024-03-02T09:25:29;99944.28;;;19.86;57.17
85758;BME280;76202;52.626;4.746;2024-03-02T09:27:55;99948.91;;;19.95;56.86
85758;BME280;76202;52.626;4.746;2024-03-02T09:30:20;99948.63;;;20.02;56.63
85758;BME280;76202;52.626;4.746;2024-03-02T09:32:45;99943.75;;;20.09;56.41
85758;BME280;76202;52.626;4.746;2024-03-02T09:35:11;99951.09;;;20.09;56.47
85758;BME280;76202;52.626;4.746;2024-03-02T09:37:37;99944.00;;;20.08;56.98
85758;BME280;76202;52.626;4.746;2024-03-02T09:40:03;99948.13;;;20.10;57.09
85758;BME280;76202;52.626;4.746;2024-03-02T09:42:29;99955.16;;;20.06;57.14
85758;BME280;76202;52.626;4.746;2024-03-02T09:44:54;99953.53;;;20.00;57.47
85758;BME280;76202;52.626;4.746;2024-03-02T09:47:20;99941.31;;;19.97;57.12
85758;BME280;76202;52.626;4.746;2024-03-02T09:49:45;99942.38;;;19.96;57.13
85758;BME280;76202;52.626;4.746;2024-03-02T09:52:10;99947.53;;;19.93;57.37
85758;BME280;76202;52.626;4.746;2024-03-02T09:54:36;99932.88;;;19.89;57.42
85758;BME280;76202;52.626;4.746;2024-03-02T09:57:02;99944.56;;;19.89;57.56
85758;BME280;76202;52.626;4.746;2024-03-02T09:59:28;99948.34;;;19.88;57.03
85758;BME280;76202;52.626;4.746;2024-03-02T10:02:02;99952.41;;;19.86;57.24
85758;BME280;76202;52.626;4.746;2024-03-02T10:04:28;99952.13;;;19.82;57.56
85758;BME280;76202;52.626;4.746;2024-03-02T10:07:14;99963.28;;;19.81;57.65
85758;BME280;76202;52.626;4.746;2024-03-02T10:09:40;99954.56;;;19.79;57.62
85758;BME280;76202;52.626;4.746;2024-03-02T10:12:09;99954.84;;;19.77;58.02
85758;BME280;76202;52.626;4.746;2024-03-02T10:14:35;99955.63;;;19.63;57.51
85758;BME280;76202;52.626;4.746;2024-03-02T10:17:05;99962.69;;;19.79;57.39
85758;BME280;76202;52.626;4.746;2024-03-02T10:19:33;99965.19;;;19.95;57.73
85758;BME280;76202;52.626;4.746;2024-03-02T10:22:00;99958.41;;;19.98;56.75
85758;BME280;76202;52.626;4.746;2024-03-02T10:24:26;99954.63;;;20.04;57.41
85758;BME280;76202;52.626;4.746;2024-03-02T10:26:52;99953.81;;;20.03;57.58
85758;BME280;76202;52.626;4.746;2024-03-02T10:29:18;99967.09;;;20.05;57.70
85758;BME280;76202;52.626;4.746;2024-03-02T10:31:44;99958.69;;;20.07;57.32
85758;BME280;76202;52.626;4.746;2024-03-02T10:34:13;99961.13;;;20.08;57.21
85758;BME280;76202;52.626;4.746;2024-03-02T10:36:43;99969.81;;;20.05;57.52
85758;BME280;76202;52.626;4.746;2024-03-02T10:39:12;99967.38;;;20.03;57.61
85758;BME280;76202;52.626;4.746;2024-03-02T10:41:40;99951.91;;;20.04;57.52
85758;BME280;76202;52.626;4.746;2024-03-02T10:44:07;99964.66;;;20.09;57.46
85758;BME280;76202;52.626;4.746;2024-03-02T10:46:35;99964.94;;;20.07;57.64
85758;BME280;76202;52.626;4.746;2024-03-02T10:49:02;99970.09;;;20.03;57.69
85758;BME280;76202;52.626;4.746;2024-03-02T10:51:30;99963.84;;;20.03;58.10
85758;BME280;76202;52.626;4.746;2024-03-02T10:54:00;99955.69;;;20.03;57.97
85758;BME280;76202;52.626;4.746;2024-03-02T10:56:39;99946.19;;;20.00;58.03
85758;BME280;76202;52.626;4.746;2024-03-02T11:01:56;99944.03;;;19.97;58.21
85758;BME280;76202;52.626;4.746;2024-03-02T11:04:24;99944.03;;;19.97;58.20
85758;BME280;76202;52.626;4.746;2024-03-02T11:06:51;99951.34;;;19.97;58.64
85758;BME280;76202;52.626;4.746;2024-03-02T11:09:22;99953.53;;;19.95;57.96
85758;BME280;76202;52.626;4.746;2024-03-02T11:11:56;99954.34;;;19.95;58.21
85758;BME280;76202;52.626;4.746;2024-03-02T11:14:25;99934.81;;;19.98;58.13
85758;BME280;76202;52.626;4.746;2024-03-02T11:16:51;99942.13;;;19.98;57.92
85758;BME280;76202;52.626;4.746;2024-03-02T11:19:18;99938.06;;;19.95;58.63
85758;BME280;76202;52.626;4.746;2024-03-02T11:21:44;99947.00;;;19.91;58.35
85758;BME280;76202;52.626;4.746;2024-03-02T11:26:58;99942.94;;;19.98;58.55
85758;BME280;76202;52.626;4.746;2024-03-02T11:29:49;99939.41;;;19.98;58.28
85758;BME280;76202;52.626;4.746;2024-03-02T11:32:18;99942.66;;;19.95;58.81
85758;BME280;76202;52.626;4.746;2024-03-02T11:34:47;99938.31;;;19.94;59.07
85758;BME280;76202;52.626;4.746;2024-03-02T11:37:15;99942.38;;;19.96;59.40
85758;BME280;76202;52.626;4.746;2024-03-02T11:39:42;99936.66;;;19.93;58.80
85758;BME280;76202;52.626;4.746;2024-03-02T11:42:08;99942.38;;;19.91;58.86
85758;BME280;76202;52.626;4.746;2024-03-02T11:44:36;99929.88;;;19.90;59.29
85758;BME280;76202;52.626;4.746;2024-03-02T11:47:06;99933.69;;;19.89;58.40
85758;BME280;76202;52.626;4.746;2024-03-02T11:49:46;99925.81;;;19.88;59.34
85758;BME280;76202;52.626;4.746;2024-03-02T11:52:14;99926.09;;;19.91;59.20
85758;BME280;76202;52.626;4.746;2024-03-02T11:54:47;99936.13;;;19.96;59.96
85758;BME280;76202;52.626;4.746;2024-03-02T11:57:14;99938.59;;;19.97;59.66
85758;BME280;76202;52.626;4.746;2024-03-02T11:59:41;99920.41;;;19.98;59.29
85758;BME280;76202;52.626;4.746;2024-03-02T12:02:06;99931.00;;;19.99;59.47
85758;BME280;76202;52.626;4.746;2024-03-02T12:04:32;99929.09;;;19.95;58.57
85758;BME280;76202;52.626;4.746;2024-03-02T12:07:00;99922.84;;;19.89;58.58
85758;BME280;76202;52.626;4.746;2024-03-02T12:09:28;99929.34;;;19.83;58.11
85758;BME280;76202;52.626;4.746;2024-03-02T12:12:09;99925.00;;;19.87;57.97
85758;BME280;76202;52.626;4.746;2024-03-02T12:14:37;99922.28;;;19.77;57.39
85758;BME280;76202;52.626;4.746;2024-03-02T12:17:03;99907.59;;;19.78;56.70
85758;BME280;76202;52.626;4.746;2024-03-02T12:19:30;99915.22;;;19.81;56.81
85758;BME280;76202;52.626;4.746;2024-03-02T12:22:01;99912.25;;;19.88;56.38
85758;BME280;76202;52.626;4.746;2024-03-02T12:24:28;99910.09;;;19.95;56.82
85758;BME280;76202;52.626;4.746;2024-03-02T12:26:55;99909.28;;;19.94;56.57
85758;BME280;76202;52.626;4.746;2024-03-02T12:29:20;99912.56;;;20.01;56.19
85758;BME280;76202;52.626;4.746;2024-03-02T12:31:50;99908.19;;;20.11;55.90
85758;BME280;76202;52.626;4.746;2024-03-02T12:34:17;99908.72;;;20.23;55.65
85758;BME280;76202;52.626;4.746;2024-03-02T12:36:46;99895.47;;;20.36;55.32
85758;BME280;76202;52.626;4.746;2024-03-02T12:39:15;99896.53;;;20.40;55.40
85758;BME280;76202;52.626;4.746;2024-03-02T12:41:41;99890.53;;;20.58;55.20
85758;BME280;76202;52.626;4.746;2024-03-02T12:44:06;99884.81;;;20.75;54.91
85758;BME280;76202;52.626;4.746;2024-03-02T12:46:32;99884.75;;;20.90;54.76
85758;BME280;76202;52.626;4.746;2024-03-02T12:48:58;99876.84;;;20.94;54.44
85758;BME280;76202;52.626;4.746;2024-03-02T12:51:30;99874.91;;;21.14;53.87
85758;BME280;76202;52.626;4.746;2024-03-02T12:53:56;99863.44;;;21.28;54.26
85758;BME280;76202;52.626;4.746;2024-03-02T12:56:22;99860.63;;;21.38;54.20
85758;BME280;76202;52.626;4.746;2024-03-02T12:58:47;99872.56;;;21.52;53.83
85758;BME280;76202;52.626;4.746;2024-03-02T13:01:14;99862.97;;;21.59;53.62
85758;BME280;76202;52.626;4.746;2024-03-02T13:03:41;99867.00;;;21.67;53.35